Time;durP1;ratioP1;P1;durP2;ratioP2;P2;SDS_P1;SDS_P2;PMS_P1;PMS_P2;Temp;Humidity;BMP_temperature;BMP_pressure;BME280_temperature;BME280_humidity;BME280_pressure;Samples;Min_cycle;Max_cycle;Signal;HPM_P1;HPM_P2
2023/06/28 00:00:28;;;;;;;5.90;1.30;;;14.60;99.90;;;;;;5054959;28;20041;-64
2023/06/28 00:02:55;;;;;;;2.80;1.20;;;14.70;99.90;;;;;;5054589;28;20040;-64
2023/06/28 00:05:21;;;;;;;2.67;1.13;;;14.60;99.90;;;;;;5054885;28;20111;-64
2023/06/28 00:07:47;;;;;;;1.52;0.95;;;15.30;99.90;;;;;;5054917;28;20033;-64
2023/06/28 00:10:13;;;;;;;1.70;0.90;;;14.80;99.90;;;;;;5055062;28;20345;-64
2023/06/28 00:12:39;;;;;;;2.28;1.17;;;14.60;99.90;;;;;;5054433;28;20147;-64
2023/06/28 00:15:05;;;;;;;1.15;0.80;;;14.60;99.90;;;;;;5054750;28;20037;-64
2023/06/28 00:17:31;;;;;;;3.03;1.13;;;14.60;99.90;;;;;;5054720;28;20094;-64
2023/06/28 00:20:07;;;;;;;1.95;1.10;;;14.60;99.90;;;;;;5054561;28;20036;-64
2023/06/28 00:22:33;;;;;;;1.38;1.05;;;14.50;99.90;;;;;;5054638;28;20071;-64
2023/06/28 00:25:00;;;;;;;1.50;0.93;;;14.50;99.90;;;;;;5053021;28;20211;-64
2023/06/28 00:27:26;;;;;;;2.45;1.00;;;14.50;99.90;;;;;;5054201;28;20072;-64
2023/06/28 00:29:52;;;;;;;7.57;1.10;;;14.50;99.90;;;;;;5054204;28;20047;-64
2023/06/28 00:32:18;;;;;;;2.78;1.35;;;14.50;99.90;;;;;;5052903;28;20497;-64
2023/06/28 00:34:43;;;;;;;2.35;1.23;;;14.50;99.90;;;;;;5054318;28;20045;-64
2023/06/28 00:37:09;;;;;;;2.47;1.27;;;14.50;99.90;;;;;;5054281;28;20474;-64
2023/06/28 00:39:35;;;;;;;8.02;1.75;;;14.50;99.90;;;;;;5052709;28;20489;-64
2023/06/28 00:42:01;;;;;;;1.20;0.85;;;15.10;99.90;;;;;;5054309;28;20163;-64
2023/06/28 00:44:27;;;;;;;3.83;1.35;;;14.50;99.90;;;;;;5052895;28;20119;-64
2023/06/28 00:46:55;;;;;;;2.55;1.45;;;14.50;99.90;;;;;;5054122;28;20086;-64
2023/06/28 00:49:23;;;;;;;10.40;1.10;;;14.50;99.90;;;;;;5054078;28;20578;-64
2023/06/28 00:51:50;;;;;;;2.03;1.08;;;14.40;99.90;;;;;;5053737;28;20108;-64
2023/06/28 00:54:16;;;;;;;3.08;1.27;;;14.70;99.90;;;;;;5053935;28;20040;-64
2023/06/28 00:56:43;;;;;;;3.17;1.30;;;14.40;1.00;;;;;;5052423;28;20515;-64
2023/06/28 00:59:09;;;;;;;2.85;1.50;;;14.30;1.00;;;;;;5053942;28;20099;-64
2023/06/28 01:01:36;;;;;;;2.40;1.23;;;14.40;99.90;;;;;;5053809;28;20170;-64
2023/06/28 01:04:05;;;;;;;2.17;1.15;;;14.40;1.00;;;;;;5053499;28;20136;-64
2023/06/28 01:06:35;;;;;;;6.47;1.30;;;14.40;1.00;;;;;;5053737;28;20396;-64
2023/06/28 01:09:02;;;;;;;2.80;1.52;;;14.30;1.00;;;;;;5053764;28;20377;-64
2023/06/28 01:11:28;;;;;;;2.25;1.30;;;14.30;1.00;;;;;;5052942;28;20029;-64
2023/06/28 01:13:54;;;;;;;3.40;1.17;;;14.30;98.30;;;;;;5053619;28;20044;-65
2023/06/28 01:16:20;;;;;;;4.72;1.63;;;14.30;99.90;;;;;;5053627;28;20047;-66
2023/06/28 01:18:46;;;;;;;2.38;1.25;;;14.30;99.90;;;;;;5053450;28;20103;-64
2023/06/28 01:21:14;;;;;;;1.80;1.23;;;14.20;86.10;;;;;;5052299;28;20036;-64
2023/06/28 01:23:40;;;;;;;1.92;1.30;;;14.20;99.90;;;;;;5053474;28;20040;-64
2023/06/28 01:26:07;;;;;;;1.50;1.10;;;14.20;99.90;;;;;;5053365;28;20490;-64
2023/06/28 01:28:33;;;;;;;3.15;1.13;;;14.20;99.90;;;;;;5053076;28;20041;-64
2023/06/28 01:31:03;;;;;;;1.90;1.42;;;14.20;99.90;;;;;;5052108;28;20040;-64
2023/06/28 01:33:29;;;;;;;5.53;1.40;;;14.30;99.90;;;;;;5053386;28;20131;-64
2023/06/28 01:35:56;;;;;;;7.13;1.50;;;14.20;1.00;;;;;;5051679;28;20497;-64
2023/06/28 01:38:22;;;;;;;3.17;1.42;;;14.10;99.90;;;;;;5052890;28;20041;-64
2023/06/28 01:40:52;;;;;;;1.63;1.20;;;14.20;25.80;;;;;;5052842;28;20041;-64
2023/06/28 01:43:18;;;;;;;2.90;1.40;;;14.20;99.90;;;;;;5053186;28;20045;-64
2023/06/28 01:45:44;;;;;;;4.07;1.27;;;14.20;99.90;;;;;;5053101;28;20053;-64
2023/06/28 01:48:09;;;;;;;4.03;1.60;;;14.20;1.00;;;;;;5052812;28;20068;-64
2023/06/28 01:50:35;;;;;;;3.42;1.42;;;14.20;1.00;;;;;;5052728;28;20175;-64
2023/06/28 01:53:03;;;;;;;2.63;1.45;;;14.20;1.00;;;;;;5052985;28;20028;-64
2023/06/28 01:55:29;;;;;;;2.65;1.50;;;14.10;99.90;;;;;;5051808;28;20041;-64
2023/06/28 01:57:56;;;;;;;3.03;1.20;;;14.10;99.90;;;;;;5052948;28;20538;-64
2023/06/28 02:00:22;;;;;;;2.65;1.30;;;14.10;99.90;;;;;;5052988;28;20400;-65
2023/06/28 02:02:47;;;;;;;2.67;1.45;;;14.10;87.80;;;;;;5052924;28;20120;-64
2023/06/28 02:05:16;;;;;;;6.28;1.58;;;14.00;1.00;;;;;;5052031;28;20053;-64
2023/06/28 02:07:41;;;;;;;2.40;1.40;;;14.10;88.20;;;;;;5051734;28;20076;-64
2023/06/28 02:10:09;;;;;;;2.72;1.48;;;14.20;1.00;;;;;;5051694;28;20075;-64
2023/06/28 02:12:35;;;;;;;3.22;1.48;;;14.10;99.90;;;;;;5051682;28;20080;-64
2023/06/28 02:15:02;;;;;;;4.68;1.25;;;14.60;99.90;;;;;;5052006;28;20075;-64
2023/06/28 02:17:30;;;;;;;1.38;1.17;;;14.00;1.00;;;;;;5051621;28;20045;-64
2023/06/28 02:19:55;;;;;;;3.45;1.30;;;14.10;99.90;;;;;;5051592;28;20040;-64
2023/06/28 02:22:21;;;;;;;3.25;1.48;;;14.00;99.90;;;;;;5051516;28;20101;-64
2023/06/28 02:24:46;;;;;;;2.58;1.20;;;14.00;99.90;;;;;;5055320;28;20120;-64
2023/06/28 02:27:12;;;;;;;1.52;1.23;;;14.00;1.00;;;;;;5055436;28;20048;-64
2023/06/28 02:29:37;;;;;;;5.85;1.83;;;14.10;1.00;;;;;;5055364;28;20040;-64
2023/06/28 02:32:04;;;;;;;2.72;1.60;;;14.10;99.90;;;;;;5055252;28;20126;-64
2023/06/28 02:34:29;;;;;;;2.00;1.42;;;14.10;99.90;;;;;;5055010;28;20036;-64
2023/06/28 02:36:55;;;;;;;1.98;1.45;;;14.10;1.00;;;;;;5055176;28;20036;-64
2023/06/28 02:39:22;;;;;;;3.47;1.48;;;14.10;1.00;;;;;;5055272;28;20477;-64
2023/06/28 02:41:47;;;;;;;5.35;1.42;;;14.10;99.90;;;;;;5054816;28;20037;-64
2023/06/28 02:44:14;;;;;;;2.35;1.38;;;14.10;1.00;;;;;;5055109;28;20044;-64
2023/06/28 02:46:39;;;;;;;2.45;1.30;;;14.20;99.90;;;;;;5055004;28;20425;-64
2023/06/28 02:49:06;;;;;;;2.28;1.30;;;14.20;4.10;;;;;;5055064;28;20041;-64
2023/06/28 02:51:32;;;;;;;4.90;1.73;;;14.20;99.90;;;;;;5054817;28;20041;-64
2023/06/28 02:53:58;;;;;;;2.25;1.23;;;14.40;99.90;;;;;;5054970;28;20490;-64
2023/06/28 02:56:23;;;;;;;2.78;1.58;;;14.10;99.90;;;;;;5054950;28;20055;-64
2023/06/28 02:58:49;;;;;;;2.78;1.63;;;14.10;99.90;;;;;;5054889;28;20545;-64
2023/06/28 03:01:15;;;;;;;2.67;1.67;;;14.20;1.00;;;;;;5054849;28;20033;-64
2023/06/28 03:03:41;;;;;;;2.13;1.30;;;14.20;99.90;;;;;;5018322;28;1054885;-64
2023/06/28 03:06:07;;;;;;;2.67;1.60;;;14.20;62.40;;;;;;5055706;28;20302;-64
2023/06/28 03:08:33;;;;;;;2.35;1.45;;;14.20;99.90;;;;;;5055715;28;20557;-64
2023/06/28 03:10:59;;;;;;;2.92;1.52;;;14.20;1.00;;;;;;5056036;28;20048;-64
2023/06/28 03:13:25;;;;;;;3.45;1.60;;;14.20;1.00;;;;;;5055738;28;20087;-64
2023/06/28 03:15:50;;;;;;;2.47;1.75;;;14.30;44.30;;;;;;5055882;28;20037;-64
2023/06/28 03:18:16;;;;;;;2.45;1.30;;;14.30;99.90;;;;;;5055589;28;20049;-64
2023/06/28 03:20:42;;;;;;;3.75;1.90;;;14.40;1.00;;;;;;5055768;28;20369;-64
2023/06/28 03:23:08;;;;;;;2.08;1.13;;;14.40;99.90;;;;;;5055741;28;20043;-64
2023/06/28 03:25:33;;;;;;;5.47;1.50;;;14.40;99.90;;;;;;5055289;28;20056;-65
2023/06/28 03:27:59;;;;;;;2.70;1.27;;;14.40;1.00;;;;;;5055364;28;20033;-64
2023/06/28 03:30:24;;;;;;;3.25;1.73;;;14.50;31.30;;;;;;5055602;28;20037;-64
2023/06/28 03:32:50;;;;;;;5.80;1.67;;;14.50;99.90;;;;;;5055618;28;20033;-64
2023/06/28 03:35:15;;;;;;;2.67;1.50;;;14.50;99.90;;;;;;5055074;28;20116;-64
2023/06/28 03:37:51;;;;;;;3.97;1.60;;;14.50;99.90;;;;;;5055134;28;20056;-64
2023/06/28 03:40:16;;;;;;;6.78;1.65;;;14.50;99.90;;;;;;5055197;28;20037;-64
2023/06/28 03:42:42;;;;;;;3.70;1.92;;;14.50;1.00;;;;;;5055398;28;20033;-64
2023/06/28 03:45:08;;;;;;;4.70;2.05;;;14.50;99.90;;;;;;5055022;28;20052;-64
2023/06/28 03:47:34;;;;;;;3.72;1.90;;;14.60;99.90;;;;;;5055071;28;20053;-64
2023/06/28 03:49:59;;;;;;;5.10;2.05;;;14.60;99.90;;;;;;5055196;28;20037;-64
2023/06/28 03:52:25;;;;;;;6.07;1.95;;;14.60;92.40;;;;;;5055186;28;20044;-64
2023/06/28 03:54:50;;;;;;;1.83;1.38;;;14.60;99.90;;;;;;5055133;28;20032;-64
2023/06/28 03:57:16;;;;;;;3.20;1.15;;;15.20;99.90;;;;;;5055103;28;20068;-64
2023/06/28 03:59:42;;;;;;;5.15;2.00;;;15.50;99.90;;;;;;5055092;28;20040;-64
2023/06/28 04:02:07;;;;;;;2.55;1.38;;;14.60;99.90;;;;;;5054688;28;20071;-64
2023/06/28 04:04:33;;;;;;;2.20;1.65;;;15.00;99.90;;;;;;5054617;28;20056;-64
2023/06/28 04:07:01;;;;;;;1.60;1.15;;;14.60;99.90;;;;;;5054965;28;20123;-64
2023/06/28 04:09:27;;;;;;;1.75;1.23;;;14.60;1.00;;;;;;5054909;28;20389;-64
2023/06/28 04:11:53;;;;;;;7.15;1.98;;;14.60;1.00;;;;;;5054495;28;20044;-64
2023/06/28 04:14:18;;;;;;;2.95;1.25;;;14.70;99.90;;;;;;5054754;28;20037;-64
2023/06/28 04:16:44;;;;;;;5.03;1.60;;;14.70;99.90;;;;;;5054346;28;20040;-64
2023/06/28 04:19:09;;;;;;;1.63;1.40;;;14.90;99.90;;;;;;5054646;28;20072;-64
2023/06/28 04:21:35;;;;;;;4.47;1.52;;;14.80;1.00;;;;;;5054288;28;20565;-64
2023/06/28 04:24:01;;;;;;;3.70;1.42;;;14.80;99.90;;;;;;5054430;28;20040;-64
2023/06/28 04:26:26;;;;;;;3.72;1.63;;;14.80;99.90;;;;;;5054545;28;20041;-64
2023/06/28 04:28:52;;;;;;;3.60;1.30;;;14.80;99.90;;;;;;5054521;28;20037;-64
2023/06/28 04:31:18;;;;;;;1.42;1.15;;;14.80;99.90;;;;;;5054160;28;20463;-64
2023/06/28 04:33:43;;;;;;;4.43;1.60;;;14.80;99.90;;;;;;5054386;28;20044;-64
2023/06/28 04:36:09;;;;;;;2.88;1.55;;;14.90;99.90;;;;;;5054402;28;20397;-64
2023/06/28 04:38:35;;;;;;;2.05;1.48;;;14.90;99.90;;;;;;5054288;28;20508;-64
2023/06/28 04:41:00;;;;;;;1.73;1.42;;;14.80;99.90;;;;;;5054008;28;20041;-64
2023/06/28 04:43:26;;;;;;;3.90;1.80;;;14.90;1.00;;;;;;5053002;28;20041;-64
2023/06/28 04:45:55;;;;;;;4.03;1.60;;;14.90;99.90;;;;;;5053307;28;20047;-64
2023/06/28 04:48:21;;;;;;;1.90;1.48;;;14.90;99.90;;;;;;5054219;28;20045;-64
2023/06/28 04:50:47;;;;;;;2.90;1.48;;;14.90;99.90;;;;;;5054081;28;20087;-65
2023/06/28 04:53:13;;;;;;;2.90;1.33;;;14.90;99.90;;;;;;5054117;28;20040;-64
2023/06/28 04:55:38;;;;;;;2.33;1.50;;;14.90;99.90;;;;;;5053992;28;20393;-64
2023/06/28 04:58:05;;;;;;;2.10;1.20;;;14.90;99.90;;;;;;5053917;28;20041;-64
2023/06/28 05:00:32;;;;;;;4.45;1.45;;;14.90;99.90;;;;;;5054015;28;20067;-64
2023/06/28 05:03:02;;;;;;;6.45;1.73;;;14.90;17.60;;;;;;5052436;28;20572;-64
2023/06/28 05:05:29;;;;;;;2.93;1.53;;;14.90;1.80;;;;;;5053688;28;20044;-64
2023/06/28 05:07:55;;;;;;;3.60;1.35;;;14.90;99.90;;;;;;5053632;28;20320;-64
2023/06/28 05:10:24;;;;;;;1.95;1.30;;;14.90;99.90;;;;;;5054312;28;20079;-63
2023/06/28 05:12:51;;;;;;;3.38;1.85;;;15.30;99.90;;;;;;5053688;28;20068;-63
2023/06/28 05:15:20;;;;;;;1.52;1.20;;;14.90;99.90;;;;;;5035505;28;20072;-63
2023/06/28 05:17:46;;;;;;;1.90;1.48;;;14.90;32.00;;;;;;5053594;28;20450;-63
2023/06/28 05:20:12;;;;;;;1.70;1.05;;;16.00;99.90;;;;;;5053178;28;20072;-63
2023/06/28 05:22:46;;;;;;;6.10;1.00;;;15.00;1.00;;;;;;5053226;28;20087;-63
2023/06/28 05:25:11;;;;;;;5.75;1.70;;;15.00;1.00;;;;;;5053431;28;20510;-64
2023/06/28 05:27:37;;;;;;;2.97;1.20;;;15.10;99.90;;;;;;5053376;28;20033;-63
2023/06/28 05:30:04;;;;;;;2.08;1.40;;;15.10;1.00;;;;;;5053197;28;20425;-63
2023/06/28 05:32:29;;;;;;;2.00;1.15;;;15.10;99.90;;;;;;5053430;28;20037;-62
2023/06/28 05:34:55;;;;;;;3.10;1.40;;;15.20;99.90;;;;;;5053284;28;20037;-67
2023/06/28 05:37:20;;;;;;;2.15;1.15;;;15.50;1.00;;;;;;5053313;28;20477;-70
2023/06/28 05:39:47;;;;;;;1.77;1.30;;;15.20;1.00;;;;;;5051932;28;20045;-70
2023/06/28 05:42:13;;;;;;;1.88;1.20;;;16.30;1.00;;;;;;5053172;28;20041;-64
2023/06/28 05:44:38;;;;;;;3.33;1.40;;;15.60;99.90;;;;;;5052739;28;20484;-63
2023/06/28 05:47:04;;;;;;;5.28;1.30;;;15.30;99.90;;;;;;5053080;28;20032;-62
2023/06/28 05:49:31;;;;;;;1.77;1.25;;;15.30;1.00;;;;;;5052993;28;20120;-64
2023/06/28 05:51:57;;;;;;;2.05;1.30;;;15.40;99.90;;;;;;5053024;28;20082;-63
2023/06/28 05:54:23;;;;;;;2.88;1.23;;;15.40;99.90;;;;;;5053039;28;20083;-63
2023/06/28 05:56:48;;;;;;;2.75;1.23;;;15.60;99.90;;;;;;5052858;28;20450;-63
2023/06/28 05:59:14;;;;;;;1.27;1.02;;;15.60;99.90;;;;;;5052904;28;20072;-62
2023/06/28 06:01:40;;;;;;;1.83;1.13;;;15.50;1.00;;;;;;5052827;28;20128;-63
2023/06/28 06:04:05;;;;;;;1.23;0.95;;;15.70;99.90;;;;;;5051404;28;20053;-62
2023/06/28 06:06:31;;;;;;;1.95;0.90;;;15.70;99.90;;;;;;5051563;28;20041;-62
2023/06/28 06:08:56;;;;;;;0.68;0.57;;;15.80;99.90;;;;;;5052540;28;20091;-63
2023/06/28 06:11:22;;;;;;;3.67;1.20;;;15.80;99.90;;;;;;5052914;28;20144;-63
2023/06/28 06:13:47;;;;;;;1.08;0.75;;;15.90;99.90;;;;;;5052757;28;20124;-63
2023/06/28 06:16:13;;;;;;;1.10;0.90;;;15.90;94.50;;;;;;5052817;28;20110;-63
2023/06/28 06:18:40;;;;;;;2.22;1.35;;;16.20;99.90;;;;;;5052663;28;20039;-63
2023/06/28 06:21:06;;;;;;;1.40;0.88;;;16.00;99.90;;;;;;5052776;28;20047;-62
2023/06/28 06:23:32;;;;;;;1.60;0.95;;;16.00;13.80;;;;;;5052654;28;20068;-63
2023/06/28 06:25:57;;;;;;;1.92;1.20;;;16.00;7.60;;;;;;5052548;28;20076;-63
2023/06/28 06:28:23;;;;;;;3.50;1.67;;;16.10;1.00;;;;;;5052590;28;20139;-63
2023/06/28 06:30:49;;;;;;;2.25;1.27;;;16.10;1.00;;;;;;5052665;28;20136;-69
2023/06/28 06:33:15;;;;;;;9.05;1.50;;;16.10;1.00;;;;;;5051117;28;20500;-63
2023/06/28 06:35:40;;;;;;;4.10;1.73;;;16.10;1.00;;;;;;5052208;28;20053;-63
2023/06/28 06:38:06;;;;;;;5.20;1.73;;;16.20;1.00;;;;;;5052534;28;20079;-62
2023/06/28 06:40:33;;;;;;;2.08;1.15;;;16.20;1.00;;;;;;5052234;28;20040;-63
2023/06/28 06:42:59;;;;;;;6.05;1.85;;;16.20;1.00;;;;;;5052530;28;20059;-63
2023/06/28 06:45:24;;;;;;;1.85;1.10;;;16.20;1.00;;;;;;5052359;28;20045;-63
2023/06/28 06:47:50;;;;;;;3.05;1.85;;;16.20;1.00;;;;;;5052148;28;20065;-63
2023/06/28 06:50:18;;;;;;;2.30;1.38;;;16.30;1.00;;;;;;5052500;28;20044;-62
2023/06/28 06:52:44;;;;;;;2.50;1.40;;;16.30;1.00;;;;;;5052445;28;20037;-63
2023/06/28 06:55:10;;;;;;;2.35;1.30;;;16.30;1.00;;;;;;5052463;28;20484;-63
2023/06/28 06:57:35;;;;;;;2.72;1.70;;;16.30;1.00;;;;;;5052346;28;20047;-63
2023/06/28 07:00:02;;;;;;;1.85;1.38;;;17.00;1.00;;;;;;5052051;28;20167;-63
2023/06/28 07:02:28;;;;;;;3.53;1.55;;;16.40;1.00;;;;;;5052294;28;20033;-63
2023/06/28 07:04:53;;;;;;;2.40;1.60;;;16.50;1.00;;;;;;5052103;28;20060;-63
2023/06/28 07:07:19;;;;;;;3.42;1.60;;;16.50;95.20;;;;;;5050674;28;20123;-63
2023/06/28 07:09:44;;;;;;;2.78;1.30;;;16.60;99.90;;;;;;5054374;28;20472;-63
2023/06/28 07:12:10;;;;;;;4.00;1.75;;;16.40;99.90;;;;;;5055650;28;20454;-63
2023/06/28 07:14:36;;;;;;;2.58;1.17;;;16.50;58.10;;;;;;5055589;28;20041;-63
2023/06/28 07:17:01;;;;;;;3.50;1.70;;;16.50;99.90;;;;;;5055465;28;20033;-63
2023/06/28 07:19:27;;;;;;;3.10;1.98;;;16.50;99.90;;;;;;5055740;28;20033;-63
2023/06/28 07:21:52;;;;;;;2.50;1.70;;;16.40;99.90;;;;;;5056201;28;20753;-64
2023/06/28 07:24:18;;;;;;;5.28;2.10;;;16.40;99.90;;;;;;5055761;28;20114;-64
2023/06/28 07:26:43;;;;;;;1.92;1.40;;;16.40;99.90;;;;;;5055517;28;20041;-64
2023/06/28 07:29:09;;;;;;;3.72;2.17;;;16.40;99.90;;;;;;5054261;28;20041;-63
2023/06/28 07:31:35;;;;;;;5.22;1.90;;;16.40;99.90;;;;;;5055552;28;20090;-63
2023/06/28 07:34:05;;;;;;;6.65;1.95;;;16.30;1.00;;;;;;5055524;28;20036;-64
2023/06/28 07:36:34;;;;;;;;;;;16.30;1.00;;;;;;5055634;28;20119;-66
2023/06/28 07:38:59;;;;;;;4.10;1.92;;;16.30;99.90;;;;;;5055410;28;19979;-64
2023/06/28 07:41:25;;;;;;;3.42;1.65;;;16.20;99.90;;;;;;5055331;28;20045;-64
2023/06/28 07:43:51;;;;;;;3.22;1.83;;;16.20;93.10;;;;;;5055365;28;20094;-64
2023/06/28 07:46:17;;;;;;;3.63;2.08;;;16.20;99.90;;;;;;5054892;28;20405;-64
2023/06/28 07:48:42;;;;;;;3.25;1.88;;;16.20;99.90;;;;;;5055205;28;20029;-64
2023/06/28 07:51:08;;;;;;;4.10;1.85;;;16.30;99.90;;;;;;5055125;28;20124;-64
2023/06/28 07:53:34;;;;;;;3.88;2.10;;;16.20;1.00;;;;;;5055050;28;20396;-63
2023/06/28 07:55:59;;;;;;;2.25;1.48;;;16.30;1.00;;;;;;5055132;28;20045;-63
2023/06/28 07:58:25;;;;;;;4.22;2.50;;;16.30;99.90;;;;;;5054990;28;20044;-63
2023/06/28 08:00:51;;;;;;;2.30;1.90;;;16.30;99.90;;;;;;5054976;28;20063;-63
2023/06/28 08:03:17;;;;;;;5.90;2.63;;;16.10;1.00;;;;;;5054477;28;20057;-62
2023/06/28 08:05:43;;;;;;;3.30;2.20;;;17.30;22.50;;;;;;5055064;28;20226;-63
2023/06/28 08:08:09;;;;;;;3.38;2.10;;;16.80;99.90;;;;;;5054578;28;20077;-64
2023/06/28 08:10:35;;;;;;;6.85;2.38;;;16.20;99.90;;;;;;5054733;28;20444;-65
2023/06/28 08:13:00;;;;;;;3.53;2.13;;;16.10;99.90;;;;;;5054644;28;20033;-64
2023/06/28 08:15:26;;;;;;;5.68;2.72;;;16.20;99.90;;;;;;5054698;28;20477;-64
2023/06/28 08:17:52;;;;;;;3.80;2.25;;;16.20;99.90;;;;;;5054655;28;20045;-63
2023/06/28 08:20:17;;;;;;;4.35;2.42;;;16.30;1.00;;;;;;5053500;28;20037;-63
2023/06/28 08:22:43;;;;;;;4.63;2.95;;;16.40;1.00;;;;;;5054522;28;20115;-63
2023/06/28 08:25:09;;;;;;;6.05;2.60;;;16.50;1.00;;;;;;5054496;28;20044;-63
2023/06/28 08:27:35;;;;;;;4.88;2.92;;;16.60;1.00;;;;;;5054448;28;20029;-63
2023/06/28 08:30:01;;;;;;;5.25;2.65;;;17.50;1.00;;;;;;5054223;28;20072;-63
2023/06/28 08:32:26;;;;;;;3.95;2.60;;;17.40;1.00;;;;;;5054483;28;20071;-64
2023/06/28 08:34:52;;;;;;;3.88;2.55;;;16.80;1.00;;;;;;5054298;28;20112;-63
2023/06/28 08:37:17;;;;;;;6.43;3.17;;;16.90;1.00;;;;;;5054339;28;20114;-63
2023/06/28 08:39:43;;;;;;;4.13;2.38;;;16.90;1.00;;;;;;5054159;28;20045;-63
2023/06/28 08:42:09;;;;;;;4.75;2.70;;;17.00;1.00;;;;;;5053713;28;20041;-64
2023/06/28 08:44:38;;;;;;;6.57;3.58;;;17.00;1.00;;;;;;5053782;28;20029;-63
2023/06/28 08:47:05;;;;;;;3.33;2.33;;;16.90;1.00;;;;;;5052361;28;20047;-72
2023/06/28 08:49:32;;;;;;;5.25;3.00;;;16.90;1.00;;;;;;5052313;28;20095;-64
2023/06/28 08:51:57;;;;;;;4.95;3.08;;;17.00;1.00;;;;;;5053815;28;20056;-65
2023/06/28 08:54:27;;;;;;;4.18;2.85;;;17.30;1.00;;;;;;5052276;28;20036;-68
2023/06/28 08:56:56;;;;;;;4.45;2.80;;;16.90;1.00;;;;;;5053725;28;20045;-63
2023/06/28 08:59:22;;;;;;;5.13;3.03;;;17.00;1.00;;;;;;5053748;28;20049;-70
2023/06/28 09:01:48;;;;;;;3.63;2.50;;;16.80;1.00;;;;;;5052160;28;20069;-63
2023/06/28 09:04:13;;;;;;;4.68;3.08;;;16.90;1.00;;;;;;5053287;28;20075;-66
2023/06/28 09:06:39;;;;;;;3.70;2.65;;;17.00;1.00;;;;;;5053469;28;20496;-68
2023/06/28 09:09:05;;;;;;;3.20;2.60;;;17.00;1.00;;;;;;5053497;28;20078;-64
2023/06/28 09:11:31;;;;;;;5.30;3.13;;;17.10;1.00;;;;;;5053456;28;20029;-62
2023/06/28 09:13:57;;;;;;;5.35;2.90;;;17.10;1.00;;;;;;5053109;28;20037;-63
2023/06/28 09:16:23;;;;;;;5.80;3.00;;;17.30;1.00;;;;;;5053335;28;20400;-63
2023/06/28 09:18:49;;;;;;;6.30;3.28;;;17.40;1.00;;;;;;5053352;28;20037;-63
2023/06/28 09:21:28;;;;;;;5.95;2.75;;;17.20;1.00;;;;;;5053191;28;20051;-63
2023/06/28 09:23:54;;;;;;;11.75;2.97;;;17.30;1.00;;;;;;5053222;28;20115;-63
2023/06/28 09:26:21;;;;;;;4.40;2.65;;;17.30;1.00;;;;;;5053063;28;20504;-63
2023/06/28 09:28:48;;;;;;;3.83;2.78;;;17.10;1.00;;;;;;5053117;28;20033;-63
2023/06/28 09:31:18;;;;;;;8.93;2.80;;;17.20;1.00;;;;;;5052810;28;20079;-63
2023/06/28 09:33:43;;;;;;;3.53;2.75;;;17.20;1.00;;;;;;5053023;28;20045;-63
2023/06/28 09:36:10;;;;;;;7.85;3.28;;;17.80;1.00;;;;;;5052939;28;20485;-63
2023/06/28 09:38:43;;;;;;;4.22;2.88;;;17.10;10.60;;;;;;5052827;28;20044;-63
2023/06/28 09:41:09;;;;;;;4.40;2.83;;;17.10;1.00;;;;;;5053142;28;20041;-64
2023/06/28 09:43:36;;;;;;;6.55;3.70;;;17.10;1.00;;;;;;5051694;28;20083;-63
2023/06/28 09:46:13;;;;;;;4.45;2.83;;;18.00;4.50;;;;;;5053019;28;20049;-64
2023/06/28 09:48:45;;;;;;;6.07;3.47;;;17.20;1.00;;;;;;5053055;28;20033;-64
2023/06/28 09:51:11;;;;;;;5.18;2.92;;;17.20;13.10;;;;;;5051840;28;20127;-63
2023/06/28 09:53:52;;;;;;;4.47;3.70;;;17.20;1.00;;;;;;5053002;28;20041;-63
2023/06/28 09:56:18;;;;;;;8.45;3.70;;;17.20;8.30;;;;;;5051961;28;20476;-65
2023/06/28 09:58:47;;;;;;;11.95;3.67;;;17.10;2.90;;;;;;5052794;28;20041;-64
2023/06/28 10:01:17;;;;;;;5.72;3.45;;;17.70;1.00;;;;;;5051564;28;20040;-64
2023/06/28 10:03:44;;;;;;;4.78;3.80;;;17.40;7.90;;;;;;5052575;28;20052;-65
2023/06/28 10:06:10;;;;;;;5.53;3.35;;;17.10;15.70;;;;;;5052753;28;20477;-63
2023/06/28 10:08:37;;;;;;;6.97;4.50;;;17.20;12.00;;;;;;5051138;28;20045;-66
2023/06/28 10:11:12;;;;;;;6.97;4.28;;;17.20;15.50;;;;;;5052594;28;20084;-63
2023/06/28 10:13:41;;;;;;;6.88;4.10;;;17.30;20.60;;;;;;5052574;28;20033;-63
2023/06/28 10:16:12;;;;;;;7.80;4.22;;;17.60;23.00;;;;;;5052292;28;20036;-63
2023/06/28 10:18:40;;;;;;;5.03;3.85;;;17.20;13.70;;;;;;5052711;28;20083;-64
2023/06/28 10:21:07;;;;;;;5.75;4.28;;;17.10;10.10;;;;;;5052649;28;20052;-65
2023/06/28 10:23:35;;;;;;;8.30;4.13;;;17.20;11.50;;;;;;5052303;28;20056;-64
2023/06/28 10:26:04;;;;;;;7.63;3.88;;;17.30;14.40;;;;;;5052344;28;20142;-64
2023/06/28 10:28:34;;;;;;;9.68;4.38;;;17.20;8.00;;;;;;5052339;28;20112;-64
2023/06/28 10:31:03;;;;;;;8.45;4.05;;;17.50;17.80;;;;;;5052439;28;20091;-69
2023/06/28 10:33:36;;;;;;;12.55;4.30;;;17.30;19.40;;;;;;5052583;28;20037;-65
2023/06/28 10:36:03;;;;;;;6.82;4.00;;;17.30;20.30;;;;;;5052577;28;20043;-64
2023/06/28 10:38:43;;;;;;;8.30;4.68;;;17.40;17.60;;;;;;5052502;28;20404;-67
2023/06/28 10:41:09;;;;;;;7.93;4.00;;;18.20;14.30;;;;;;5052541;28;20041;-65
2023/06/28 10:43:34;;;;;;;7.50;4.30;;;17.40;20.50;;;;;;5052878;28;20059;-65
2023/06/28 10:46:00;;;;;;;6.05;4.05;;;17.50;20.20;;;;;;5056387;28;20041;-64
2023/06/28 10:48:27;;;;;;;9.65;4.60;;;17.40;15.60;;;;;;5056370;28;20041;-71
2023/06/28 10:50:58;;;;;;;6.25;4.32;;;17.40;3.60;;;;;;5056343;28;20045;-64
2023/06/28 10:53:28;;;;;;;6.90;4.13;;;17.40;13.10;;;;;;5056268;28;20033;-64
2023/06/28 10:56:13;;;;;;;6.18;4.28;;;17.50;17.60;;;;;;5056197;28;20462;-65
2023/06/28 10:58:43;;;;;;;6.88;4.00;;;17.80;26.20;;;;;;5055882;28;20111;-65
2023/06/28 11:01:30;;;;;;;6.78;4.82;;;17.50;14.70;;;;;;5055910;28;20441;-66
2023/06/28 11:04:17;;;;;;;8.02;5.05;;;17.40;19.90;;;;;;5040244;28;20068;-65
2023/06/28 11:06:43;;;;;;;10.27;4.97;;;17.50;13.60;;;;;;5055924;28;20124;-73
2023/06/28 11:09:13;;;;;;;7.15;4.82;;;17.50;22.00;;;;;;5054279;28;20037;-70
2023/06/28 11:11:41;;;;;;;7.88;4.30;;;17.40;14.40;;;;;;5054050;28;20064;-65
2023/06/28 11:14:30;;;;;;;9.38;5.13;;;17.40;15.80;;;;;;5055832;28;20047;-64
2023/06/28 11:17:01;;;;;;;7.55;5.03;;;17.50;38.90;;;;;;5054471;28;20052;-64
2023/06/28 11:19:27;;;;;;;9.75;4.70;;;17.50;29.90;;;;;;5055791;28;20392;-65
2023/06/28 11:22:00;;;;;;;7.80;4.90;;;18.00;20.90;;;;;;5055382;28;20037;-65
2023/06/28 11:24:29;;;;;;;7.90;5.13;;;17.50;19.60;;;;;;5055674;28;20048;-65
2023/06/28 11:26:54;;;;;;;7.00;4.55;;;17.50;3.50;;;;;;5055178;28;20060;-66
2023/06/28 11:29:21;;;;;;;6.65;4.20;;;17.50;7.40;;;;;;5055195;28;20029;-65
2023/06/28 11:31:51;;;;;;;8.27;4.93;;;17.70;6.70;;;;;;5055428;28;20481;-64
2023/06/28 11:34:18;;;;;;;;;;;17.50;6.90;;;;;;5055910;28;20033;-64
2023/06/28 11:36:45;;;;;;;7.40;4.63;;;18.10;37.00;;;;;;5055504;28;19927;-65
2023/06/28 11:39:18;;;;;;;8.00;4.47;;;17.60;17.00;;;;;;5055071;28;20040;-64
2023/06/28 11:41:44;;;;;;;7.70;4.60;;;17.60;11.50;;;;;;5055269;28;20123;-67
2023/06/28 11:44:12;;;;;;;7.63;4.15;;;18.20;27.90;;;;;;5055059;28;20141;-64
2023/06/28 11:46:38;;;;;;;11.27;4.07;;;17.60;10.90;;;;;;5055121;28;20334;-64
2023/06/28 11:49:04;;;;;;;6.97;4.38;;;17.60;3.70;;;;;;5053928;28;20053;-64
2023/06/28 11:51:30;;;;;;;7.25;4.45;;;17.50;5.00;;;;;;5055233;28;20120;-65
2023/06/28 11:53:57;;;;;;;7.70;4.85;;;17.70;1.00;;;;;;5053615;28;20052;-64
2023/06/28 11:56:39;;;;;;;6.07;4.40;;;17.90;6.70;;;;;;5054847;28;20443;-65
2023/06/28 11:59:12;;;;;;;7.00;4.85;;;17.70;10.10;;;;;;5054766;28;20045;-65
2023/06/28 12:01:37;;;;;;;7.70;5.15;;;18.40;8.00;;;;;;5054984;28;20041;-65
2023/06/28 12:04:12;;;;;;;7.07;4.07;;;17.80;4.70;;;;;;5054565;28;20053;-66
2023/06/28 12:06:41;;;;;;;6.88;4.50;;;17.90;1.00;;;;;;5054544;28;20051;-65
2023/06/28 12:09:24;;;;;;;9.18;4.97;;;17.90;1.00;;;;;;5054886;28;20045;-64
2023/06/28 12:11:52;;;;;;;6.90;4.57;;;18.00;1.00;;;;;;5054742;28;20045;-63
2023/06/28 12:14:19;;;;;;;6.68;4.70;;;18.10;1.00;;;;;;5054766;28;20453;-65
2023/06/28 12:16:45;;;;;;;9.32;5.05;;;18.20;1.00;;;;;;5054368;28;20060;-63
2023/06/28 12:19:15;;;;;;;7.53;4.65;;;18.30;1.00;;;;;;5052986;28;20052;-64
2023/06/28 12:21:41;;;;;;;7.35;4.78;;;18.30;1.00;;;;;;5054671;28;20076;-66
2023/06/28 12:24:17;;;;;;;6.35;3.95;;;18.40;1.00;;;;;;5053264;28;20041;-65
2023/06/28 12:26:45;;;;;;;6.15;3.88;;;18.60;1.00;;;;;;5054382;28;20100;-65
2023/06/28 12:29:11;;;;;;;7.13;5.20;;;18.40;1.00;;;;;;5054173;28;20087;-66
2023/06/28 12:31:45;;;;;;;6.45;4.50;;;18.40;1.00;;;;;;5054434;28;20029;-71
2023/06/28 12:34:12;;;;;;;8.75;4.65;;;18.30;1.00;;;;;;5054334;28;20041;-67
2023/06/28 12:36:40;;;;;;;8.85;4.80;;;18.40;1.00;;;;;;5054331;28;20549;-64
2023/06/28 12:39:09;;;;;;;5.68;4.35;;;18.30;1.00;;;;;;5054040;28;20041;-64
2023/06/28 12:41:34;;;;;;;7.43;4.47;;;18.40;1.00;;;;;;5052973;28;20111;-64
2023/06/28 12:44:00;;;;;;;7.55;4.20;;;18.40;99.90;;;;;;5053845;28;20488;-64
2023/06/28 12:46:27;;;;;;;5.72;4.47;;;19.30;99.90;;;;;;5054002;28;20119;-64
2023/06/28 12:48:57;;;;;;;8.48;4.82;;;18.50;99.90;;;;;;5053780;28;20124;-63